« Back
NWS Peachtree City, Ga » Text Product » CSG Terminal Aerodrome Forecast


Printer-friendly Version
Current Version              Previous Versions:   1  2  3  4  5  6  7  8  9  

Terminal Aerodrome Forecast

167
FTUS42 KFFC 030328 AAB
TAFCSG
TAF AMD
KCSG 030328Z 0303/0324 35003KT P6SM SCT025 BKN040
      TEMPO 0303/0306 -RA BKN025
     FM030600 03003KT 5SM BR BKN025
     FM030800 06004KT 4SM -RADZ BR OVC010
     FM031000 09005KT 2SM -RADZ BR OVC004
     FM031600 10006KT 3SM -RADZ BR OVC007
     FM032100 12005KT 4SM BR BKN012=



USA.gov is the U.S. government's official web portal to all federal, state and local government web resources and services.